Time;durP1;ratioP1;P1;durP2;ratioP2;P2;SDS_P1;SDS_P2;PMS_P1;PMS_P2;Temp;Humidity;BMP_temperature;BMP_pressure;BME280_temperature;BME280_humidity;BME280_pressure;Samples;Min_cycle;Max_cycle;Signal;HPM_P1;HPM_P2
2021/01/15 00:00:59;;;;;;;3.33;2.50;;;0.70;99.90;;;;;;5039894;28;20221;-78
2021/01/15 00:03:24;;;;;;;5.00;3.47;;;0.70;99.90;;;;;;5036745;28;20284;-78
2021/01/15 00:05:50;;;;;;;3.67;2.87;;;0.70;99.90;;;;;;5031057;28;20602;-78
2021/01/15 00:08:15;;;;;;;3.23;2.63;;;0.70;99.90;;;;;;5038901;28;20832;-78
2021/01/15 00:10:41;;;;;;;4.17;2.80;;;0.70;99.90;;;;;;5025624;28;20201;-78
2021/01/15 00:13:07;;;;;;;4.00;2.80;;;0.70;99.90;;;;;;5030982;28;20726;-79
2021/01/15 00:15:32;;;;;;;5.63;3.43;;;0.60;99.90;;;;;;5036233;28;20197;-78
2021/01/15 00:17:58;;;;;;;3.13;2.37;;;0.70;99.90;;;;;;5034135;28;20295;-78
2021/01/15 00:20:23;;;;;;;4.70;3.10;;;0.70;99.90;;;;;;5037191;28;20187;-79
2021/01/15 00:22:49;;;;;;;4.90;2.77;;;0.70;99.90;;;;;;5038567;28;20248;-78
2021/01/15 00:25:14;;;;;;;4.20;3.73;;;0.70;99.90;;;;;;5036397;28;20193;-78
2021/01/15 00:27:40;;;;;;;2.97;2.67;;;0.80;99.90;;;;;;5036559;28;20229;-78
2021/01/15 00:30:08;;;;;;;4.73;3.13;;;0.80;99.90;;;;;;5036324;28;20186;-78
2021/01/15 00:32:34;;;;;;;2.40;2.07;;;0.80;99.90;;;;;;5027506;28;20186;-78
2021/01/15 00:35:00;;;;;;;3.27;2.63;;;0.80;99.90;;;;;;5036614;28;20194;-78
2021/01/15 00:37:26;;;;;;;4.37;3.50;;;0.80;99.90;;;;;;5036802;28;20664;-78
2021/01/15 00:39:51;;;;;;;3.07;2.77;;;0.80;99.90;;;;;;5037017;28;20229;-79
2021/01/15 00:42:17;;;;;;;3.13;2.40;;;0.90;99.90;;;;;;5035138;28;20225;-78
2021/01/15 00:44:45;;;;;;;7.27;2.53;;;0.80;99.90;;;;;;5036949;28;20183;-78
2021/01/15 00:47:14;;;;;;;4.63;3.73;;;0.80;99.90;;;;;;5026791;28;20187;-78
2021/01/15 00:49:40;;;;;;;3.50;2.57;;;0.80;99.90;;;;;;5026625;28;21758;-79
2021/01/15 00:52:05;;;;;;;3.77;2.80;;;0.80;99.90;;;;;;5023525;28;20183;-78
2021/01/15 00:54:31;;;;;;;3.37;2.40;;;0.80;99.90;;;;;;5039090;28;20804;-78
2021/01/15 00:57:03;;;;;;;4.47;2.27;;;0.80;99.90;;;;;;5038151;28;20634;-78
2021/01/15 00:59:29;;;;;;;3.73;2.90;;;0.80;99.90;;;;;;5051879;28;20187;-78
2021/01/15 01:01:54;;;;;;;2.67;1.93;;;0.80;99.90;;;;;;5040328;28;20225;-78
2021/01/15 01:04:20;;;;;;;4.73;2.90;;;0.80;99.90;;;;;;5040723;28;20210;-78
2021/01/15 01:06:46;;;;;;;2.90;2.50;;;0.80;99.90;;;;;;5042160;28;20188;-78
2021/01/15 01:09:12;;;;;;;4.73;2.97;;;0.80;99.90;;;;;;5040819;28;20700;-78
2021/01/15 01:11:37;;;;;;;4.77;3.33;;;0.80;99.90;;;;;;5039724;28;20527;-78
2021/01/15 01:14:04;;;;;;;3.40;2.37;;;0.80;99.90;;;;;;5039797;28;20182;-78
2021/01/15 01:16:30;;;;;;;3.83;2.33;;;0.80;99.90;;;;;;5038326;28;20216;-78
2021/01/15 01:18:56;;;;;;;4.80;2.47;;;0.80;99.90;;;;;;5041692;28;20210;-78
2021/01/15 01:21:22;;;;;;;3.00;2.50;;;0.90;99.90;;;;;;5037936;28;20216;-78
2021/01/15 01:23:48;;;;;;;3.93;2.80;;;0.80;99.90;;;;;;5039342;28;20302;-78
2021/01/15 01:26:14;;;;;;;3.33;2.67;;;0.80;99.90;;;;;;5037427;28;20904;-78
2021/01/15 01:28:42;;;;;;;4.03;2.57;;;0.80;99.90;;;;;;5053805;28;21031;-79
2021/01/15 01:31:11;;;;;;;3.13;2.60;;;0.80;99.90;;;;;;5038801;28;20223;-78
2021/01/15 01:33:37;;;;;;;3.43;2.73;;;0.90;99.90;;;;;;5037093;28;20193;-78
2021/01/15 01:36:07;;;;;;;3.50;2.73;;;0.80;99.90;;;;;;5040331;28;20194;-78
2021/01/15 01:38:33;;;;;;;4.90;3.17;;;0.80;99.90;;;;;;5040074;28;20213;-78
2021/01/15 01:40:59;;;;;;;3.40;2.40;;;0.80;99.90;;;;;;5040969;28;20202;-78
2021/01/15 01:43:25;;;;;;;3.30;2.97;;;0.80;99.90;;;;;;5041915;28;20190;-78
2021/01/15 01:45:52;;;;;;;5.57;3.47;;;0.80;99.90;;;;;;5039036;28;20178;-79
2021/01/15 01:48:19;;;;;;;5.40;3.23;;;0.90;99.90;;;;;;5031258;28;20217;-78
2021/01/15 01:50:47;;;;;;;3.27;2.97;;;0.90;99.90;;;;;;5028907;28;20187;-78
2021/01/15 01:53:16;;;;;;;5.73;3.10;;;0.90;99.90;;;;;;5038387;28;20232;-79
2021/01/15 01:55:42;;;;;;;4.77;3.03;;;0.90;99.90;;;;;;5037439;28;20193;-79
2021/01/15 01:58:10;;;;;;;4.77;2.57;;;0.90;99.90;;;;;;5039298;28;20341;-78
2021/01/15 02:00:39;;;;;;;4.40;2.73;;;0.90;99.90;;;;;;5036027;28;20206;-78
2021/01/15 02:03:05;;;;;;;4.67;3.20;;;0.90;99.90;;;;;;5037502;28;20175;-78
2021/01/15 02:05:30;;;;;;;4.37;2.70;;;0.90;99.90;;;;;;5053817;28;20190;-78
2021/01/15 02:07:56;;;;;;;5.07;2.63;;;0.90;99.90;;;;;;5039252;28;20441;-78
2021/01/15 02:10:35;;;;;;;3.93;2.87;;;0.90;99.90;;;;;;5038701;28;20188;-78
2021/01/15 02:13:10;;;;;;;2.67;2.17;;;0.90;99.90;;;;;;5038171;28;20178;-78
2021/01/15 02:16:08;;;;;;;5.03;3.10;;;0.80;99.90;;;;;;5038019;28;20190;-79
2021/01/15 02:18:56;;;;;;;2.80;2.23;;;0.90;99.90;;;;;;5027603;28;20570;-78
2021/01/15 02:21:40;;;;;;;3.60;2.87;;;0.80;99.90;;;;;;5037014;28;20264;-79
2021/01/15 02:24:42;;;;;;;4.17;3.07;;;0.90;99.90;;;;;;5052607;28;20644;-78
2021/01/15 02:27:19;;;;;;;2.67;2.43;;;1.00;99.90;;;;;;5038480;28;20197;-78
2021/01/15 02:30:17;;;;;;;3.90;2.70;;;0.90;99.90;;;;;;5039483;28;20723;-78
2021/01/15 02:33:06;;;;;;;3.70;2.43;;;0.90;99.90;;;;;;5039096;28;20178;-78
2021/01/15 02:35:41;;;;;;;4.00;2.67;;;0.90;99.90;;;;;;5039134;28;20194;-78
2021/01/15 02:38:13;;;;;;;2.83;2.57;;;0.90;99.90;;;;;;5036514;28;20251;-78
2021/01/15 02:41:00;;;;;;;5.33;2.87;;;0.90;99.90;;;;;;5028433;28;20203;-78
2021/01/15 02:43:27;;;;;;;2.40;2.10;;;0.90;99.90;;;;;;5040214;28;20206;-78
2021/01/15 02:45:56;;;;;;;3.93;2.77;;;0.80;99.90;;;;;;5035572;28;20182;-78
2021/01/15 02:48:26;;;;;;;5.53;3.60;;;0.90;99.90;;;;;;5036639;28;20257;-79
2021/01/15 02:50:51;;;;;;;2.97;2.53;;;0.90;99.90;;;;;;5039402;28;20232;-78
2021/01/15 02:53:17;;;;;;;2.80;2.30;;;0.80;99.90;;;;;;5052479;28;20198;-78
2021/01/15 02:55:44;;;;;;;3.60;2.97;;;0.80;99.90;;;;;;5037992;28;20259;-79
2021/01/15 02:58:12;;;;;;;4.23;2.47;;;0.90;99.90;;;;;;5038221;28;20352;-79
2021/01/15 03:00:38;;;;;;;2.80;1.80;;;0.90;99.90;;;;;;5036877;28;20209;-78
2021/01/15 03:03:17;;;;;;;2.87;2.27;;;1.00;99.90;;;;;;5037363;28;20200;-79
2021/01/15 03:05:49;;;;;;;4.07;3.30;;;1.00;99.90;;;;;;5037318;28;20265;-78
2021/01/15 03:08:18;;;;;;;2.73;2.30;;;0.90;99.90;;;;;;5038702;28;20754;-78
2021/01/15 03:10:44;;;;;;;3.77;3.37;;;1.00;99.90;;;;;;5035997;28;20196;-78
2021/01/15 03:13:10;;;;;;;3.67;2.03;;;1.00;99.90;;;;;;5029994;28;20199;-78
2021/01/15 03:15:37;;;;;;;3.40;2.73;;;1.00;99.90;;;;;;5036528;28;20194;-78
2021/01/15 03:18:05;;;;;;;2.33;2.13;;;0.90;99.90;;;;;;5036701;28;20221;-79
2021/01/15 03:20:31;;;;;;;4.03;2.63;;;0.90;99.90;;;;;;5030043;28;20202;-78
2021/01/15 03:22:57;;;;;;;4.50;2.53;;;1.00;99.90;;;;;;5041386;28;20183;-79
2021/01/15 03:25:23;;;;;;;3.73;2.70;;;1.00;99.90;;;;;;5038381;28;20179;-78
2021/01/15 03:27:54;;;;;;;2.40;2.20;;;0.90;99.90;;;;;;5037347;28;21019;-78
2021/01/15 03:30:22;;;;;;;3.47;2.17;;;0.80;99.90;;;;;;5041013;28;20549;-78
2021/01/15 03:32:53;;;;;;;2.00;1.67;;;0.80;99.90;;;;;;5039107;28;20183;-78
2021/01/15 03:35:25;;;;;;;3.20;2.23;;;0.80;99.90;;;;;;5036705;28;20702;-78
2021/01/15 03:37:59;;;;;;;3.63;2.63;;;0.80;99.90;;;;;;5036890;28;20198;-78
2021/01/15 03:40:27;;;;;;;4.47;2.50;;;0.80;99.90;;;;;;5038201;28;20183;-79
2021/01/15 03:42:53;;;;;;;2.97;2.07;;;0.90;99.90;;;;;;5038206;28;20179;-79
2021/01/15 03:45:19;;;;;;;2.37;2.03;;;0.90;99.90;;;;;;5038902;28;20210;-78
2021/01/15 03:47:45;;;;;;;3.87;2.50;;;0.80;99.90;;;;;;5038574;28;20207;-78
2021/01/15 03:50:11;;;;;;;4.03;2.80;;;0.80;99.90;;;;;;5038105;28;20236;-79
2021/01/15 03:52:37;;;;;;;5.47;2.97;;;0.70;99.90;;;;;;5039546;28;20365;-78
2021/01/15 03:55:04;;;;;;;2.80;1.77;;;0.80;99.90;;;;;;5052399;28;20183;-78
2021/01/15 03:57:30;;;;;;;3.60;2.87;;;0.80;99.90;;;;;;5036600;28;20217;-78
2021/01/15 03:59:55;;;;;;;2.57;1.93;;;0.70;99.90;;;;;;5040994;28;20201;-78
2021/01/15 04:02:21;;;;;;;3.03;2.23;;;0.70;99.90;;;;;;5036946;28;20214;-78
2021/01/15 04:04:49;;;;;;;3.23;2.07;;;0.70;99.90;;;;;;5038041;28;20194;-78
2021/01/15 04:07:18;;;;;;;2.73;2.03;;;0.70;99.90;;;;;;5055525;28;20178;-78
2021/01/15 04:09:44;;;;;;;3.33;2.43;;;0.70;99.90;;;;;;5039570;28;20174;-78
2021/01/15 04:12:11;;;;;;;5.17;2.40;;;0.70;99.90;;;;;;5038313;28;20264;-78
2021/01/15 04:14:38;;;;;;;3.67;2.87;;;0.70;99.90;;;;;;5036885;28;20186;-79
2021/01/15 04:17:04;;;;;;;4.00;2.70;;;0.60;99.90;;;;;;5037555;28;20182;-78
2021/01/15 04:19:29;;;;;;;2.27;2.07;;;0.60;99.90;;;;;;5036593;28;20272;-79
2021/01/15 04:21:55;;;;;;;2.77;2.00;;;0.60;99.90;;;;;;5034498;28;20317;-79
2021/01/15 04:24:21;;;;;;;4.80;2.30;;;0.70;99.90;;;;;;5050059;28;20202;-78
2021/01/15 04:26:55;;;;;;;2.67;2.07;;;0.60;99.90;;;;;;5038130;28;20190;-77
2021/01/15 04:29:21;;;;;;;2.83;2.57;;;0.60;99.90;;;;;;5037941;28;20706;-78
2021/01/15 04:31:46;;;;;;;2.93;2.27;;;0.60;99.90;;;;;;5038074;28;20191;-79
2021/01/15 04:34:12;;;;;;;2.67;2.47;;;0.70;99.90;;;;;;5038491;28;20267;-78
2021/01/15 04:36:38;;;;;;;2.27;2.07;;;0.60;99.90;;;;;;5039576;28;20217;-79
2021/01/15 04:39:04;;;;;;;3.23;2.30;;;0.60;99.90;;;;;;5039144;28;20206;-79
2021/01/15 04:41:34;;;;;;;3.03;2.70;;;0.60;99.90;;;;;;5037766;28;20250;-81
2021/01/15 04:44:00;;;;;;;3.63;2.77;;;0.60;99.90;;;;;;5038848;28;20182;-79
2021/01/15 04:46:26;;;;;;;2.47;2.27;;;0.60;99.90;;;;;;5037678;28;20577;-79
2021/01/15 04:48:53;;;;;;;4.17;3.17;;;0.50;99.90;;;;;;5040605;28;20209;-79
2021/01/15 04:51:26;;;;;;;4.37;2.93;;;0.50;99.90;;;;;;5038592;28;20757;-78
2021/01/15 04:53:55;;;;;;;3.10;2.30;;;0.50;99.90;;;;;;5040594;28;20205;-79
2021/01/15 04:56:47;;;;;;;3.17;2.63;;;0.40;99.90;;;;;;5039627;28;20190;-78
2021/01/15 04:59:13;;;;;;;3.83;2.27;;;0.50;99.90;;;;;;5039811;28;20228;-78
2021/01/15 05:01:41;;;;;;;3.53;2.13;;;0.40;99.90;;;;;;5039071;28;20217;-79
2021/01/15 05:04:08;;;;;;;3.67;2.10;;;0.40;99.90;;;;;;5038889;28;20232;-79
2021/01/15 05:06:49;;;;;;;2.73;2.40;;;0.40;99.90;;;;;;5039451;28;20274;-79
2021/01/15 05:09:20;;;;;;;2.97;2.50;;;0.40;99.90;;;;;;5040672;28;20629;-78
2021/01/15 05:11:46;;;;;;;1.97;1.77;;;0.30;99.90;;;;;;5039526;28;20664;-78
2021/01/15 05:14:16;;;;;;;4.37;3.37;;;0.40;99.90;;;;;;5038920;28;20204;-79
2021/01/15 05:16:44;;;;;;;5.10;2.50;;;0.40;99.90;;;;;;5038243;28;20190;-79
2021/01/15 05:19:12;;;;;;;2.93;2.63;;;0.40;99.90;;;;;;5039751;28;20205;-78
2021/01/15 05:21:38;;;;;;;2.60;1.93;;;0.30;99.90;;;;;;5036693;28;20268;-78
2021/01/15 05:24:05;;;;;;;4.17;2.20;;;0.30;99.90;;;;;;5045410;28;20194;-80
2021/01/15 05:26:38;;;;;;;2.27;1.70;;;0.30;99.90;;;;;;5037961;28;20186;-80
2021/01/15 05:29:06;;;;;;;4.70;3.23;;;0.30;99.90;;;;;;5038728;28;20229;-80
2021/01/15 05:31:48;;;;;;;2.13;1.67;;;0.30;99.90;;;;;;5031549;28;20190;-79
2021/01/15 05:34:14;;;;;;;2.50;2.20;;;0.30;99.90;;;;;;5038315;28;20887;-81
2021/01/15 05:36:40;;;;;;;3.87;2.33;;;0.20;99.90;;;;;;5028004;28;20245;-80
2021/01/15 05:39:13;;;;;;;2.73;2.30;;;0.20;99.90;;;;;;5040959;28;20762;-79
2021/01/15 05:41:39;;;;;;;3.10;2.80;;;0.30;99.90;;;;;;5037660;28;20648;-77
2021/01/15 05:44:05;;;;;;;3.60;2.40;;;0.30;99.90;;;;;;5035058;28;20206;-77
2021/01/15 05:46:31;;;;;;;3.30;2.17;;;0.20;99.90;;;;;;5036356;28;20914;-77
2021/01/15 05:49:06;;;;;;;3.33;2.60;;;0.30;99.90;;;;;;5041301;28;20197;-76
2021/01/15 05:51:33;;;;;;;3.73;2.73;;;0.30;99.90;;;;;;5040241;28;20190;-77
2021/01/15 05:54:01;;;;;;;4.00;2.33;;;0.30;99.90;;;;;;5031242;28;20194;-77
2021/01/15 05:56:39;;;;;;;3.73;2.60;;;0.30;99.90;;;;;;5036343;28;20233;-76
2021/01/15 05:59:07;;;;;;;4.17;2.30;;;0.20;99.90;;;;;;5043815;28;20226;-77
2021/01/15 06:01:56;;;;;;;3.27;2.50;;;0.30;99.90;;;;;;5039596;28;20209;-77
2021/01/15 06:04:36;;;;;;;2.70;1.80;;;0.30;99.90;;;;;;5032634;28;20206;-77
2021/01/15 06:07:10;;;;;;;7.93;2.03;;;0.30;99.90;;;;;;5021756;28;20191;-76
2021/01/15 06:09:37;;;;;;;4.37;2.60;;;0.30;99.90;;;;;;5037903;28;20376;-76
2021/01/15 06:12:06;;;;;;;3.10;1.87;;;0.40;99.90;;;;;;5043221;28;20291;-77
2021/01/15 06:14:32;;;;;;;3.27;2.33;;;0.30;99.90;;;;;;5039197;28;20248;-76
2021/01/15 06:17:08;;;;;;;5.53;3.37;;;0.20;99.90;;;;;;5036239;28;20194;-76
2021/01/15 06:19:58;;;;;;;3.00;2.23;;;0.20;99.90;;;;;;5040030;28;20197;-76
2021/01/15 06:22:28;;;;;;;4.63;3.17;;;0.20;99.90;;;;;;5032441;28;20217;-76
2021/01/15 06:25:06;;;;;;;4.67;3.13;;;0.20;99.90;;;;;;5035988;28;20262;-77
2021/01/15 06:27:39;;;;;;;3.53;3.10;;;0.20;99.90;;;;;;5034224;28;20206;-76
2021/01/15 06:30:19;;;;;;;3.27;2.40;;;0.20;99.90;;;;;;5038633;28;20402;-77
2021/01/15 06:32:46;;;;;;;3.53;2.50;;;0.20;99.90;;;;;;5042637;28;20663;-77
2021/01/15 06:35:24;;;;;;;3.23;2.20;;;0.20;99.90;;;;;;5041337;28;20269;-77
2021/01/15 06:38:15;;;;;;;4.20;3.10;;;0.20;99.90;;;;;;5030386;28;20218;-76
2021/01/15 06:40:48;;;;;;;2.40;1.77;;;0.20;99.90;;;;;;5023625;28;20194;-76
2021/01/15 06:43:31;;;;;;;3.37;3.07;;;0.20;99.90;;;;;;5028524;28;20415;-76
2021/01/15 06:46:04;;;;;;;3.30;2.93;;;0.20;99.90;;;;;;5031860;28;20189;-77
2021/01/15 06:48:38;;;;;;;3.43;2.80;;;0.20;99.90;;;;;;5033668;28;20581;-77
2021/01/15 06:51:05;;;;;;;4.00;3.27;;;0.20;99.90;;;;;;5031390;28;20210;-76
2021/01/15 06:53:38;;;;;;;5.23;3.37;;;0.20;99.90;;;;;;5020436;28;20294;-76
2021/01/15 06:56:06;;;;;;;3.40;2.80;;;0.20;99.90;;;;;;5028681;28;20474;-76
2021/01/15 06:58:43;;;;;;;3.20;2.53;;;0.20;99.90;;;;;;5029788;28;20257;-76
2021/01/15 07:01:21;;;;;;;3.37;2.63;;;0.20;99.90;;;;;;5030079;28;20214;-76
2021/01/15 07:04:03;;;;;;;1.93;1.77;;;0.30;99.90;;;;;;5028860;28;20221;-76
2021/01/15 07:06:29;;;;;;;3.27;2.47;;;0.30;99.90;;;;;;5040935;28;20186;-76
2021/01/15 07:08:56;;;;;;;2.30;1.90;;;0.30;99.90;;;;;;5028741;28;20214;-76
2021/01/15 07:11:24;;;;;;;3.13;2.60;;;0.20;99.90;;;;;;5030180;28;20218;-76
2021/01/15 07:14:12;;;;;;;4.20;2.80;;;0.20;99.90;;;;;;5023112;28;20942;-76
2021/01/15 07:16:39;;;;;;;4.07;2.50;;;0.20;99.90;;;;;;5026451;28;20205;-77
2021/01/15 07:19:05;;;;;;;3.77;3.23;;;0.40;99.90;;;;;;5035004;28;20205;-76
2021/01/15 07:21:38;;;;;;;4.00;2.70;;;0.30;99.90;;;;;;5051141;28;20312;-76
2021/01/15 07:24:08;;;;;;;3.10;2.33;;;0.30;99.90;;;;;;5040713;28;20186;-77
2021/01/15 07:26:41;;;;;;;2.37;1.97;;;0.40;99.90;;;;;;5033999;28;20187;-76
2021/01/15 07:29:14;;;;;;;5.17;2.80;;;0.30;99.90;;;;;;5030679;28;20198;-76
2021/01/15 07:31:44;;;;;;;6.40;3.27;;;0.20;99.90;;;;;;5033100;28;20436;-76
2021/01/15 07:34:14;;;;;;;3.30;2.60;;;0.20;99.90;;;;;;5031251;28;20851;-76
2021/01/15 07:36:40;;;;;;;4.67;2.90;;;0.20;99.90;;;;;;5025527;28;20277;-76
2021/01/15 07:39:11;;;;;;;2.53;1.97;;;0.30;99.90;;;;;;5038577;28;20310;-75
2021/01/15 07:41:47;;;;;;;4.07;2.50;;;0.30;99.90;;;;;;5040555;28;20263;-76
2021/01/15 07:44:22;;;;;;;2.77;2.00;;;0.20;99.90;;;;;;5028601;28;20292;-76
2021/01/15 07:46:49;;;;;;;2.67;1.87;;;0.20;99.90;;;;;;5024307;28;20248;-76
2021/01/15 07:49:15;;;;;;;3.43;2.20;;;0.30;99.90;;;;;;5030968;28;20206;-76
2021/01/15 07:51:40;;;;;;;3.00;2.43;;;0.30;99.90;;;;;;5026772;28;20267;-76
2021/01/15 07:54:06;;;;;;;3.80;2.37;;;0.20;99.90;;;;;;5028008;28;20194;-76
2021/01/15 07:56:31;;;;;;;3.47;2.60;;;0.30;99.90;;;;;;5034302;28;20189;-76
2021/01/15 07:58:57;;;;;;;3.47;2.60;;;0.30;99.90;;;;;;5036240;28;20312;-76
2021/01/15 08:01:23;;;;;;;3.10;2.10;;;0.20;99.90;;;;;;5033952;28;20766;-77
2021/01/15 08:03:54;;;;;;;2.30;1.80;;;0.20;99.90;;;;;;5028812;28;20190;-76
2021/01/15 08:06:21;;;;;;;3.50;2.10;;;0.30;99.90;;;;;;5027425;28;20447;-76
2021/01/15 08:09:03;;;;;;;2.97;2.20;;;0.30;99.90;;;;;;5026863;28;20218;-76
2021/01/15 08:11:35;;;;;;;3.37;2.47;;;0.40;99.90;;;;;;5038971;28;20190;-76
2021/01/15 08:14:13;;;;;;;3.40;2.43;;;0.40;99.90;;;;;;5024754;28;20840;-77
2021/01/15 08:16:44;;;;;;;2.77;2.20;;;0.30;99.90;;;;;;5029647;28;20233;-76
2021/01/15 08:19:17;;;;;;;2.47;2.03;;;0.40;99.90;;;;;;5035848;28;20707;-76
2021/01/15 08:21:44;;;;;;;3.63;2.80;;;0.30;99.90;;;;;;5027067;28;20218;-76
2021/01/15 08:24:11;;;;;;;3.47;2.47;;;0.40;99.90;;;;;;5031859;28;20235;-77
2021/01/15 08:26:41;;;;;;;3.67;2.53;;;0.40;99.90;;;;;;5025208;28;20212;-76
2021/01/15 08:29:07;;;;;;;2.60;2.17;;;0.40;99.90;;;;;;5029120;28;20202;-76
2021/01/15 08:31:32;;;;;;;4.37;2.47;;;0.40;99.90;;;;;;5033527;28;20224;-77
2021/01/15 08:34:17;;;;;;;4.63;3.13;;;0.40;99.90;;;;;;5033553;28;20191;-76
2021/01/15 08:36:47;;;;;;;3.10;2.47;;;0.40;99.90;;;;;;5033517;28;20280;-76
2021/01/15 08:39:12;;;;;;;5.23;3.27;;;0.40;99.90;;;;;;5031919;28;20217;-77
2021/01/15 08:41:39;;;;;;;3.80;2.47;;;0.40;99.90;;;;;;5038154;28;20299;-76
2021/01/15 08:44:06;;;;;;;3.57;2.93;;;0.40;99.90;;;;;;5032617;28;20195;-76
2021/01/15 08:46:33;;;;;;;6.17;3.23;;;0.50;99.90;;;;;;5031140;28;20648;-76
2021/01/15 08:49:00;;;;;;;3.77;2.60;;;0.50;99.90;;;;;;5031336;28;20203;-76
2021/01/15 08:51:32;;;;;;;4.17;2.67;;;0.50;99.90;;;;;;5029493;28;20242;-77
2021/01/15 08:54:04;;;;;;;3.60;2.43;;;0.50;99.90;;;;;;5032350;28;20195;-77
2021/01/15 08:56:41;;;;;;;1.83;1.63;;;0.60;99.90;;;;;;5027187;28;20219;-76
2021/01/15 08:59:11;;;;;;;3.17;2.10;;;0.60;99.90;;;;;;5024711;28;20601;-76
2021/01/15 09:01:41;;;;;;;2.83;2.10;;;0.60;99.90;;;;;;5028090;28;20211;-76
2021/01/15 09:04:09;;;;;;;4.47;3.07;;;0.60;99.90;;;;;;5026257;28;20187;-76
2021/01/15 09:06:35;;;;;;;8.13;2.73;;;0.60;99.90;;;;;;5019161;28;20219;-76
2021/01/15 09:09:04;;;;;;;5.03;2.30;;;0.70;99.90;;;;;;5024623;28;20225;-76
2021/01/15 09:11:32;;;;;;;3.63;2.57;;;0.70;99.90;;;;;;5039766;28;20725;-75
2021/01/15 09:13:59;;;;;;;3.03;2.20;;;0.70;99.90;;;;;;5033528;28;20201;-76
2021/01/15 09:16:26;;;;;;;2.97;2.50;;;0.60;99.90;;;;;;5028914;28;20573;-75
2021/01/15 09:18:53;;;;;;;3.27;2.23;;;0.70;99.90;;;;;;5034322;28;20209;-76
2021/01/15 09:21:20;;;;;;;3.10;2.50;;;0.60;99.90;;;;;;5035461;28;20621;-75
2021/01/15 09:23:47;;;;;;;4.60;3.10;;;0.70;99.90;;;;;;5037596;28;20220;-75
2021/01/15 09:26:12;;;;;;;2.60;2.20;;;0.70;99.90;;;;;;5033045;28;20255;-76
2021/01/15 09:28:38;;;;;;;2.87;2.50;;;0.70;99.90;;;;;;5032837;28;20218;-76
2021/01/15 09:31:04;;;;;;;3.50;2.37;;;0.80;99.90;;;;;;5030018;28;20197;-75
2021/01/15 09:33:30;;;;;;;4.17;2.17;;;0.80;99.90;;;;;;5040063;28;20204;-76
2021/01/15 09:35:56;;;;;;;4.27;2.27;;;0.80;99.90;;;;;;5041375;28;20274;-76
2021/01/15 09:38:22;;;;;;;3.90;2.53;;;0.70;99.90;;;;;;5032046;28;20309;-76
2021/01/15 09:40:47;;;;;;;2.30;2.10;;;0.70;99.90;;;;;;5039703;28;20244;-76
2021/01/15 09:43:13;;;;;;;2.27;1.77;;;0.70;99.90;;;;;;5034074;28;20194;-76
2021/01/15 09:45:38;;;;;;;3.90;2.50;;;0.70;99.90;;;;;;5031622;28;20183;-76
2021/01/15 09:48:08;;;;;;;3.03;2.07;;;0.80;99.90;;;;;;5030024;28;20720;-76
2021/01/15 09:50:33;;;;;;;3.27;2.57;;;0.80;99.90;;;;;;5037532;28;20632;-76
2021/01/15 09:52:59;;;;;;;2.73;2.13;;;0.90;99.90;;;;;;5030351;28;20265;-75
2021/01/15 09:55:24;;;;;;;2.03;1.77;;;0.90;99.90;;;;;;5024001;28;20668;-76
2021/01/15 09:57:50;;;;;;;3.70;2.20;;;0.90;99.90;;;;;;5025949;28;20727;-76
2021/01/15 10:00:16;;;;;;;4.77;3.07;;;0.90;99.90;;;;;;5043213;28;20182;-76
2021/01/15 10:02:42;;;;;;;3.33;2.60;;;0.90;99.90;;;;;;5036227;28;20236;-75
2021/01/15 10:05:08;;;;;;;2.83;2.30;;;0.90;99.90;;;;;;5042857;28;20751;-76
2021/01/15 10:07:34;;;;;;;3.33;2.30;;;1.00;99.90;;;;;;5033293;28;20209;-76
2021/01/15 10:10:00;;;;;;;2.70;2.13;;;1.00;99.90;;;;;;5041075;28;20265;-76
2021/01/15 10:12:25;;;;;;;2.33;2.13;;;1.00;99.90;;;;;;5032059;28;20278;-76
2021/01/15 10:14:51;;;;;;;4.27;2.23;;;1.00;99.90;;;;;;5038785;28;20223;-76
2021/01/15 10:17:16;;;;;;;2.03;1.83;;;1.10;99.90;;;;;;5044506;28;20503;-75
2021/01/15 10:19:42;;;;;;;4.00;2.30;;;1.10;99.90;;;;;;5030411;28;20191;-76
2021/01/15 10:22:07;;;;;;;2.17;1.83;;;1.30;99.90;;;;;;5021397;28;20223;-76
2021/01/15 10:24:33;;;;;;;3.97;2.40;;;1.20;99.90;;;;;;5038042;28;20190;-75
2021/01/15 10:26:59;;;;;;;3.23;2.20;;;1.20;99.90;;;;;;5026991;28;20187;-76
2021/01/15 10:29:25;;;;;;;2.27;2.00;;;1.20;99.90;;;;;;5031880;28;20178;-76
2021/01/15 10:31:54;;;;;;;3.70;2.63;;;1.30;99.90;;;;;;5042614;28;20201;-75
2021/01/15 10:34:22;;;;;;;3.17;2.60;;;1.40;99.90;;;;;;5042562;28;20209;-76
2021/01/15 10:36:48;;;;;;;3.40;3.10;;;1.50;99.90;;;;;;5034736;28;20396;-76
2021/01/15 10:39:15;;;;;;;3.90;2.57;;;1.60;99.90;;;;;;5040437;28;20210;-76
2021/01/15 10:41:46;;;;;;;4.20;1.90;;;1.50;99.90;;;;;;5022977;28;20273;-76
2021/01/15 10:44:16;;;;;;;3.23;2.40;;;1.60;99.90;;;;;;5028930;28;20186;-76
2021/01/15 10:46:43;;;;;;;2.80;2.40;;;1.70;99.90;;;;;;5035443;28;20191;-76
2021/01/15 10:49:11;;;;;;;5.00;3.63;;;1.70;99.90;;;;;;5036433;28;20218;-76
2021/01/15 10:51:43;;;;;;;2.27;1.73;;;1.60;99.90;;;;;;5034474;28;20186;-76
2021/01/15 10:54:10;;;;;;;2.90;2.13;;;1.60;99.90;;;;;;5022553;28;20187;-77
2021/01/15 10:56:40;;;;;;;2.07;1.77;;;1.60;99.90;;;;;;5039967;28;20190;-76
2021/01/15 10:59:07;;;;;;;3.13;2.17;;;1.70;99.90;;;;;;5040563;28;20587;-75
2021/01/15 11:01:44;;;;;;;2.57;2.17;;;1.70;99.90;;;;;;5034354;28;20214;-76
2021/01/15 11:04:11;;;;;;;1.47;1.37;;;1.60;99.90;;;;;;5036091;28;20421;-76
2021/01/15 11:06:42;;;;;;;2.43;2.17;;;1.60;99.90;;;;;;5041800;28;20263;-76
2021/01/15 11:09:10;;;;;;;1.87;1.53;;;1.60;99.90;;;;;;5033986;28;20715;-76
2021/01/15 11:11:36;;;;;;;1.83;1.70;;;1.60;99.90;;;;;;5022220;28;20492;-75
2021/01/15 11:14:01;;;;;;;2.83;2.13;;;1.40;99.90;;;;;;5028245;28;20753;-76
2021/01/15 11:16:27;;;;;;;2.67;1.67;;;1.40;99.90;;;;;;5028321;28;20243;-76
2021/01/15 11:18:53;;;;;;;1.67;1.57;;;1.40;99.90;;;;;;5039382;28;20210;-76
2021/01/15 11:21:26;;;;;;;2.87;2.07;;;1.30;99.90;;;;;;5033651;28;20691;-75
2021/01/15 11:23:52;;;;;;;2.33;1.83;;;1.30;99.90;;;;;;5029118;28;20715;-76
2021/01/15 11:26:36;;;;;;;2.37;1.87;;;1.20;99.90;;;;;;5033015;28;20718;-75
2021/01/15 11:29:05;;;;;;;2.97;1.73;;;1.20;99.90;;;;;;5039088;28;20300;-76
2021/01/15 11:31:31;;;;;;;2.57;2.03;;;1.20;99.90;;;;;;5035163;28;20197;-75
2021/01/15 11:33:57;;;;;;;2.47;1.80;;;1.20;99.90;;;;;;5023644;28;20202;-75
2021/01/15 11:36:23;;;;;;;2.40;1.90;;;1.30;99.90;;;;;;5037866;28;20673;-76
2021/01/15 11:38:52;;;;;;;2.37;1.90;;;1.20;99.90;;;;;;5029067;28;20296;-76
2021/01/15 11:41:17;;;;;;;1.90;1.77;;;1.20;99.90;;;;;;5035911;28;20381;-75
2021/01/15 11:43:44;;;;;;;3.53;1.60;;;1.10;99.90;;;;;;5021546;28;20260;-75
2021/01/15 11:46:10;;;;;;;2.83;2.33;;;1.10;99.90;;;;;;5026603;28;20520;-76
2021/01/15 11:48:37;;;;;;;2.20;1.87;;;1.10;99.90;;;;;;5024993;28;20216;-75
2021/01/15 11:51:05;;;;;;;2.50;1.77;;;1.10;99.90;;;;;;5029160;28;20739;-76
2021/01/15 11:53:33;;;;;;;2.73;1.83;;;1.10;99.90;;;;;;5021842;28;20442;-76
2021/01/15 11:56:01;;;;;;;3.80;2.33;;;1.20;99.90;;;;;;5027389;28;20890;-75
2021/01/15 11:58:27;;;;;;;3.00;2.23;;;1.20;99.90;;;;;;5029642;28;20233;-76
2021/01/15 12:00:55;;;;;;;2.27;2.07;;;1.30;99.90;;;;;;5040760;28;20614;-76
2021/01/15 12:03:21;;;;;;;4.03;2.03;;;1.20;99.90;;;;;;5039044;28;20544;-83
2021/01/15 12:05:49;;;;;;;2.20;1.80;;;1.20;99.90;;;;;;5030701;28;20664;-82
2021/01/15 12:08:21;;;;;;;2.40;1.30;;;1.20;99.90;;;;;;5033557;28;20229;-81
2021/01/15 12:10:49;;;;;;;2.40;1.73;;;1.00;99.90;;;;;;5050246;28;20190;-81
2021/01/15 12:13:14;;;;;;;2.67;1.63;;;1.00;99.90;;;;;;5034570;28;20198;-80
2021/01/15 12:15:40;;;;;;;3.30;2.70;;;0.90;99.90;;;;;;5035440;28;20327;-81
2021/01/15 12:18:06;;;;;;;2.20;1.50;;;1.00;99.90;;;;;;5033284;28;20228;-82
2021/01/15 12:20:37;;;;;;;3.43;2.37;;;1.00;99.90;;;;;;5036327;28;20189;-78
2021/01/15 12:23:04;;;;;;;2.37;1.60;;;1.00;99.90;;;;;;5033849;28;20215;-84
2021/01/15 12:25:30;;;;;;;2.87;2.20;;;0.90;99.90;;;;;;5034382;28;20276;-81
2021/01/15 12:27:56;;;;;;;1.63;1.47;;;0.90;99.90;;;;;;5036180;28;20553;-82
2021/01/15 12:30:23;;;;;;;2.30;1.77;;;0.90;99.90;;;;;;5035108;28;20240;-80
2021/01/15 12:32:50;;;;;;;1.77;1.67;;;0.80;99.90;;;;;;5033019;28;20578;-80
2021/01/15 12:35:19;;;;;;;3.57;1.80;;;0.80;99.90;;;;;;5025380;28;20199;-80
2021/01/15 12:37:45;;;;;;;3.13;1.87;;;0.80;99.90;;;;;;5033604;28;20234;-81
2021/01/15 12:40:11;;;;;;;2.43;1.60;;;0.80;99.90;;;;;;5035380;28;20190;-80
2021/01/15 12:42:37;;;;;;;1.27;1.07;;;0.80;99.90;;;;;;5033729;28;20253;-80
2021/01/15 12:45:04;;;;;;;4.27;2.30;;;0.70;99.90;;;;;;5034776;28;20209;-80
2021/01/15 12:47:29;;;;;;;2.73;1.77;;;0.60;99.90;;;;;;5029335;28;20314;-77
2021/01/15 12:49:55;;;;;;;2.77;1.73;;;0.60;99.90;;;;;;5032885;28;20297;-76
2021/01/15 12:52:20;;;;;;;3.30;2.93;;;0.50;99.90;;;;;;5034873;28;20226;-77
2021/01/15 12:54:46;;;;;;;2.00;1.80;;;0.60;99.90;;;;;;5035090;28;20190;-76
2021/01/15 12:57:12;;;;;;;3.93;1.90;;;0.50;99.90;;;;;;5035307;28;20190;-78
2021/01/15 12:59:37;;;;;;;3.60;2.43;;;0.60;99.90;;;;;;5034787;28;20197;-77
2021/01/15 13:02:03;;;;;;;3.90;1.73;;;0.70;99.90;;;;;;5036715;28;20214;-77
2021/01/15 13:04:30;;;;;;;2.53;1.80;;;0.70;99.90;;;;;;5034226;28;20218;-78
2021/01/15 13:06:55;;;;;;;2.77;2.07;;;0.70;99.90;;;;;;5034815;28;20308;-77